METAR AND TAF INFORMATION
METAR FOR HESH
ADDS - METARS form results

(0413 UTC 26 August 2019)
Data provider http://aviationweather.gov/metar/data/
 
METAR text: HESH 260400Z 35011KT CAVOK 31/25 Q1007 NOSIG
Conditions at: HESH (SHARM EL SHEIKHI, EG) observed 0400 UTC 26 August 2019
Temperature: 31.0°C (88°F)
Dewpoint: 25.0°C (77°F) [RH = 71%]
Pressure (altimeter): 29.73 inches Hg (1007.0 mb)
Winds: from the N (350 degrees) at 13 MPH (11 knots; 5.7 m/s)
Visibility: 6 or more miles (10+ km)
Ceiling: ceiling and visibility are OK
Clouds: unknown
Weather: no significant weather observed at this time

Forecast for: HESH (SHARM EL SHEIKHI, EG)
Text: TAF HESH 252300Z 2600/2706 35010KT CAVOK
Forecast period: 0000 UTC 26 August 2019 to 0600 UTC 27 August 2019
Forecast type: FROM: standard forecast or significant change
Winds: from the N (350 degrees) at 12 MPH (10 knots; 5.1 m/s)
Visibility: 6 or more miles 10+ km)
Ceiling: unknown
Clouds: missing
Weather: NSW  (no significant weather)

 AIRPORT MAP

 RUNWAY INFORMATION

 AIRPORT FREQUENCIES
Type APP Name RADAR Frequency 121.1 MHZ
Type GND Name GND Frequency 121.9 MHZ
Type RDO Name RDO Frequency 317.5 MHZ
Type TWR Name TWR Frequency 118.9 MHZ

 AIRPORT NEAR NAVIGATION AIDS
Type VOR-DME Name Sharm El Sheikh Frequency 114200 KHZ
Type NDB Name Sharm El Sheikh Frequency 335 KHZ



2018 Air Astana Virtual Airline